sensor_id;sensor_type;location;lat;lon;timestamp;temperature;humidity
4010;DHT22;2019;48.200;11.548;2022-08-01T00:01:14;25.10;53.60
4010;DHT22;2019;48.200;11.548;2022-08-01T00:03:40;25.10;53.70
4010;DHT22;2019;48.200;11.548;2022-08-01T00:06:05;25.10;53.60
4010;DHT22;2019;48.200;11.548;2022-08-01T00:08:31;25.10;53.50
4010;DHT22;2019;48.200;11.548;2022-08-01T00:10:57;25.10;53.40
4010;DHT22;2019;48.200;11.548;2022-08-01T00:13:22;25.10;53.40
4010;DHT22;2019;48.200;11.548;2022-08-01T00:15:48;25.00;53.30
4010;DHT22;2019;48.200;11.548;2022-08-01T00:18:13;25.00;53.40
4010;DHT22;2019;48.200;11.548;2022-08-01T00:20:39;25.00;53.50
4010;DHT22;2019;48.200;11.548;2022-08-01T00:23:04;25.00;53.50
4010;DHT22;2019;48.200;11.548;2022-08-01T00:25:30;25.00;53.60
4010;DHT22;2019;48.200;11.548;2022-08-01T00:27:56;24.90;53.60
4010;DHT22;2019;48.200;11.548;2022-08-01T00:30:21;24.90;53.70
4010;DHT22;2019;48.200;11.548;2022-08-01T00:32:47;24.90;53.70
4010;DHT22;2019;48.200;11.548;2022-08-01T00:35:12;24.80;53.70
4010;DHT22;2019;48.200;11.548;2022-08-01T00:37:38;24.80;53.80
4010;DHT22;2019;48.200;11.548;2022-08-01T00:40:05;24.80;53.90
4010;DHT22;2019;48.200;11.548;2022-08-01T00:42:31;24.80;53.90
4010;DHT22;2019;48.200;11.548;2022-08-01T00:44:56;24.70;53.90
4010;DHT22;2019;48.200;11.548;2022-08-01T00:47:22;24.70;54.00
4010;DHT22;2019;48.200;11.548;2022-08-01T00:49:47;24.70;54.10
4010;DHT22;2019;48.200;11.548;2022-08-01T00:52:13;24.60;54.00
4010;DHT22;2019;48.200;11.548;2022-08-01T00:54:39;24.60;54.10
4010;DHT22;2019;48.200;11.548;2022-08-01T00:57:05;24.60;54.10
4010;DHT22;2019;48.200;11.548;2022-08-01T00:59:31;24.60;54.10
4010;DHT22;2019;48.200;11.548;2022-08-01T01:01:56;24.60;54.20
4010;DHT22;2019;48.200;11.548;2022-08-01T01:04:22;24.50;54.10
4010;DHT22;2019;48.200;11.548;2022-08-01T01:12:28;24.50;54.20
4010;DHT22;2019;48.200;11.548;2022-08-01T01:17:37;24.40;54.10
4010;DHT22;2019;48.200;11.548;2022-08-01T01:20:05;24.40;54.00
4010;DHT22;2019;48.200;11.548;2022-08-01T01:23:10;24.40;54.10
4010;DHT22;2019;48.200;11.548;2022-08-01T01:28:17;24.30;54.10
4010;DHT22;2019;48.200;11.548;2022-08-01T01:30:51;24.30;54.10
4010;DHT22;2019;48.200;11.548;2022-08-01T01:33:18;24.30;54.90
4010;DHT22;2019;48.200;11.548;2022-08-01T01:35:51;24.20;54.10
4010;DHT22;2019;48.200;11.548;2022-08-01T01:38:21;24.20;54.20
4010;DHT22;2019;48.200;11.548;2022-08-01T01:40:49;24.20;54.20
4010;DHT22;2019;48.200;11.548;2022-08-01T01:43:16;24.20;54.30
4010;DHT22;2019;48.200;11.548;2022-08-01T01:45:44;24.20;54.30
4010;DHT22;2019;48.200;11.548;2022-08-01T01:48:13;24.10;54.30
4010;DHT22;2019;48.200;11.548;2022-08-01T01:50:40;24.10;54.40
4010;DHT22;2019;48.200;11.548;2022-08-01T01:53:07;24.10;54.40
4010;DHT22;2019;48.200;11.548;2022-08-01T01:55:37;24.10;54.50
4010;DHT22;2019;48.200;11.548;2022-08-01T01:58:05;24.00;54.40
4010;DHT22;2019;48.200;11.548;2022-08-01T02:00:32;24.00;54.40
4010;DHT22;2019;48.200;11.548;2022-08-01T02:02:59;23.90;54.40
4010;DHT22;2019;48.200;11.548;2022-08-01T02:05:26;23.90;54.40
4010;DHT22;2019;48.200;11.548;2022-08-01T02:07:54;23.90;54.50
4010;DHT22;2019;48.200;11.548;2022-08-01T02:10:21;23.90;54.50
4010;DHT22;2019;48.200;11.548;2022-08-01T02:12:48;23.90;54.60
4010;DHT22;2019;48.200;11.548;2022-08-01T02:15:15;23.90;54.60
4010;DHT22;2019;48.200;11.548;2022-08-01T02:17:46;23.90;54.70
4010;DHT22;2019;48.200;11.548;2022-08-01T02:20:13;23.90;54.70
4010;DHT22;2019;48.200;11.548;2022-08-01T02:23:14;23.80;54.60
4010;DHT22;2019;48.200;11.548;2022-08-01T02:25:50;23.80;54.60
4010;DHT22;2019;48.200;11.548;2022-08-01T02:28:25;23.80;54.60
4010;DHT22;2019;48.200;11.548;2022-08-01T02:30:56;23.80;54.60
4010;DHT22;2019;48.200;11.548;2022-08-01T02:33:25;23.70;54.50
4010;DHT22;2019;48.200;11.548;2022-08-01T02:35:56;23.70;54.50
4010;DHT22;2019;48.200;11.548;2022-08-01T02:38:26;23.70;54.60
4010;DHT22;2019;48.200;11.548;2022-08-01T02:40:53;23.70;54.60
4010;DHT22;2019;48.200;11.548;2022-08-01T02:43:21;23.70;54.60
4010;DHT22;2019;48.200;11.548;2022-08-01T02:45:54;23.60;54.60
4010;DHT22;2019;48.200;11.548;2022-08-01T02:48:23;23.60;54.50
4010;DHT22;2019;48.200;11.548;2022-08-01T02:50:52;23.60;54.50
4010;DHT22;2019;48.200;11.548;2022-08-01T02:53:20;23.60;54.60
4010;DHT22;2019;48.200;11.548;2022-08-01T02:55:47;23.60;54.50
4010;DHT22;2019;48.200;11.548;2022-08-01T02:58:15;23.60;54.40
4010;DHT22;2019;48.200;11.548;2022-08-01T03:00:43;23.50;54.40
4010;DHT22;2019;48.200;11.548;2022-08-01T03:03:11;23.50;54.40
4010;DHT22;2019;48.200;11.548;2022-08-01T03:05:37;23.50;54.40
4010;DHT22;2019;48.200;11.548;2022-08-01T03:08:06;23.50;54.30
4010;DHT22;2019;48.200;11.548;2022-08-01T03:10:36;23.50;54.40
4010;DHT22;2019;48.200;11.548;2022-08-01T03:13:03;23.50;54.40
4010;DHT22;2019;48.200;11.548;2022-08-01T03:15:32;23.40;54.40
4010;DHT22;2019;48.200;11.548;2022-08-01T03:17:59;23.40;54.40
4010;DHT22;2019;48.200;11.548;2022-08-01T03:20:27;23.30;54.30
4010;DHT22;2019;48.200;11.548;2022-08-01T03:22:56;23.30;54.40
4010;DHT22;2019;48.200;11.548;2022-08-01T03:25:24;23.30;54.50
4010;DHT22;2019;48.200;11.548;2022-08-01T03:27:55;23.30;54.50
4010;DHT22;2019;48.200;11.548;2022-08-01T03:30:23;23.30;54.60
4010;DHT22;2019;48.200;11.548;2022-08-01T03:32:49;23.30;54.60
4010;DHT22;2019;48.200;11.548;2022-08-01T03:35:15;23.30;54.60
4010;DHT22;2019;48.200;11.548;2022-08-01T03:37:44;23.20;54.50
4010;DHT22;2019;48.200;11.548;2022-08-01T03:43:21;23.20;54.70
4010;DHT22;2019;48.200;11.548;2022-08-01T03:45:50;23.20;54.80
4010;DHT22;2019;48.200;11.548;2022-08-01T03:48:18;23.20;54.80
4010;DHT22;2019;48.200;11.548;2022-08-01T03:50:50;23.20;54.80
4010;DHT22;2019;48.200;11.548;2022-08-01T03:53:20;23.20;55.00
4010;DHT22;2019;48.200;11.548;2022-08-01T03:55:47;23.10;54.90
4010;DHT22;2019;48.200;11.548;2022-08-01T03:58:14;23.10;54.90
4010;DHT22;2019;48.200;11.548;2022-08-01T04:00:40;23.10;54.90
4010;DHT22;2019;48.200;11.548;2022-08-01T04:03:10;23.10;55.00
4010;DHT22;2019;48.200;11.548;2022-08-01T04:05:37;23.00;55.00
4010;DHT22;2019;48.200;11.548;2022-08-01T04:08:05;23.00;55.00
4010;DHT22;2019;48.200;11.548;2022-08-01T04:10:31;23.00;55.00
4010;DHT22;2019;48.200;11.548;2022-08-01T04:12:57;23.00;55.20
4010;DHT22;2019;48.200;11.548;2022-08-01T04:15:22;23.00;55.20
4010;DHT22;2019;48.200;11.548;2022-08-01T04:17:49;22.90;55.20
4010;DHT22;2019;48.200;11.548;2022-08-01T04:20:14;22.90;55.20
4010;DHT22;2019;48.200;11.548;2022-08-01T04:22:41;22.90;55.30
4010;DHT22;2019;48.200;11.548;2022-08-01T04:25:17;22.90;55.40
4010;DHT22;2019;48.200;11.548;2022-08-01T04:27:48;22.90;55.50
4010;DHT22;2019;48.200;11.548;2022-08-01T04:30:16;22.90;55.60
4010;DHT22;2019;48.200;11.548;2022-08-01T04:32:44;22.90;55.70
4010;DHT22;2019;48.200;11.548;2022-08-01T04:35:12;22.80;55.60
4010;DHT22;2019;48.200;11.548;2022-08-01T04:37:40;22.80;55.70
4010;DHT22;2019;48.200;11.548;2022-08-01T04:40:06;22.80;55.80
4010;DHT22;2019;48.200;11.548;2022-08-01T04:42:33;22.80;55.80
4010;DHT22;2019;48.200;11.548;2022-08-01T04:44:59;22.80;55.90
4010;DHT22;2019;48.200;11.548;2022-08-01T04:47:26;22.80;56.00
4010;DHT22;2019;48.200;11.548;2022-08-01T04:49:53;22.80;56.00
4010;DHT22;2019;48.200;11.548;2022-08-01T04:52:19;22.90;56.10
4010;DHT22;2019;48.200;11.548;2022-08-01T04:54:45;22.90;56.10
4010;DHT22;2019;48.200;11.548;2022-08-01T04:57:12;22.90;56.30
4010;DHT22;2019;48.200;11.548;2022-08-01T04:59:40;22.90;56.20
4010;DHT22;2019;48.200;11.548;2022-08-01T05:02:14;22.90;56.80
4010;DHT22;2019;48.200;11.548;2022-08-01T05:04:40;22.90;56.30
4010;DHT22;2019;48.200;11.548;2022-08-01T05:07:07;22.90;56.30
4010;DHT22;2019;48.200;11.548;2022-08-01T05:09:33;23.00;56.40
4010;DHT22;2019;48.200;11.548;2022-08-01T05:11:59;23.00;56.40
4010;DHT22;2019;48.200;11.548;2022-08-01T05:14:26;23.10;56.40
4010;DHT22;2019;48.200;11.548;2022-08-01T05:16:52;23.10;56.30
4010;DHT22;2019;48.200;11.548;2022-08-01T05:19:18;23.10;56.20
4010;DHT22;2019;48.200;11.548;2022-08-01T05:21:44;23.20;56.20
4010;DHT22;2019;48.200;11.548;2022-08-01T05:24:09;23.30;56.30
4010;DHT22;2019;48.200;11.548;2022-08-01T05:26:35;23.30;56.00
4010;DHT22;2019;48.200;11.548;2022-08-01T05:29:02;23.30;56.00
4010;DHT22;2019;48.200;11.548;2022-08-01T05:31:28;23.40;56.20
4010;DHT22;2019;48.200;11.548;2022-08-01T05:33:54;23.50;56.10
4010;DHT22;2019;48.200;11.548;2022-08-01T05:36:19;23.50;55.90
4010;DHT22;2019;48.200;11.548;2022-08-01T05:38:45;23.50;55.80
4010;DHT22;2019;48.200;11.548;2022-08-01T05:41:10;23.60;55.80
4010;DHT22;2019;48.200;11.548;2022-08-01T05:43:36;23.60;55.60
4010;DHT22;2019;48.200;11.548;2022-08-01T05:46:02;23.70;56.30
4010;DHT22;2019;48.200;11.548;2022-08-01T05:48:27;23.70;55.50
4010;DHT22;2019;48.200;11.548;2022-08-01T05:50:53;23.80;55.50
4010;DHT22;2019;48.200;11.548;2022-08-01T05:53:19;23.80;55.50
4010;DHT22;2019;48.200;11.548;2022-08-01T05:55:45;23.80;55.60
4010;DHT22;2019;48.200;11.548;2022-08-01T05:58:11;23.90;55.60
4010;DHT22;2019;48.200;11.548;2022-08-01T06:00:36;23.90;55.60
4010;DHT22;2019;48.200;11.548;2022-08-01T06:03:02;23.90;55.40
4010;DHT22;2019;48.200;11.548;2022-08-01T06:05:28;23.90;55.30
4010;DHT22;2019;48.200;11.548;2022-08-01T06:07:53;23.90;55.30
4010;DHT22;2019;48.200;11.548;2022-08-01T06:10:19;24.00;55.30
4010;DHT22;2019;48.200;11.548;2022-08-01T06:12:45;24.00;55.20
4010;DHT22;2019;48.200;11.548;2022-08-01T06:15:11;24.00;55.20
4010;DHT22;2019;48.200;11.548;2022-08-01T06:17:36;24.10;55.20
4010;DHT22;2019;48.200;11.548;2022-08-01T06:20:03;24.10;55.10
4010;DHT22;2019;48.200;11.548;2022-08-01T06:22:29;24.10;54.80
4010;DHT22;2019;48.200;11.548;2022-08-01T06:24:55;24.10;54.80
4010;DHT22;2019;48.200;11.548;2022-08-01T06:27:21;24.10;54.90
4010;DHT22;2019;48.200;11.548;2022-08-01T06:29:46;24.20;55.00
4010;DHT22;2019;48.200;11.548;2022-08-01T06:32:12;24.20;54.80
4010;DHT22;2019;48.200;11.548;2022-08-01T06:34:38;24.20;54.80
4010;DHT22;2019;48.200;11.548;2022-08-01T06:37:03;24.30;54.70
4010;DHT22;2019;48.200;11.548;2022-08-01T06:39:29;24.30;54.80
4010;DHT22;2019;48.200;11.548;2022-08-01T06:41:54;24.30;54.70
4010;DHT22;2019;48.200;11.548;2022-08-01T06:44:20;24.40;54.70
4010;DHT22;2019;48.200;11.548;2022-08-01T06:46:45;24.40;54.80
4010;DHT22;2019;48.200;11.548;2022-08-01T06:49:11;24.50;54.80
4010;DHT22;2019;48.200;11.548;2022-08-01T06:51:37;24.50;54.80
4010;DHT22;2019;48.200;11.548;2022-08-01T06:54:02;24.60;54.70
4010;DHT22;2019;48.200;11.548;2022-08-01T06:56:28;24.60;54.50
4010;DHT22;2019;48.200;11.548;2022-08-01T06:58:54;24.60;54.90
4010;DHT22;2019;48.200;11.548;2022-08-01T07:01:27;24.70;54.30
4010;DHT22;2019;48.200;11.548;2022-08-01T07:03:53;24.70;54.30
4010;DHT22;2019;48.200;11.548;2022-08-01T07:06:19;24.80;54.30
4010;DHT22;2019;48.200;11.548;2022-08-01T07:08:44;24.80;54.30
4010;DHT22;2019;48.200;11.548;2022-08-01T07:11:10;24.90;54.20
4010;DHT22;2019;48.200;11.548;2022-08-01T07:13:35;24.90;54.20
4010;DHT22;2019;48.200;11.548;2022-08-01T07:16:01;25.00;54.20
4010;DHT22;2019;48.200;11.548;2022-08-01T07:18:26;25.00;54.10
4010;DHT22;2019;48.200;11.548;2022-08-01T07:20:52;25.00;54.00
4010;DHT22;2019;48.200;11.548;2022-08-01T07:23:18;25.10;54.20
4010;DHT22;2019;48.200;11.548;2022-08-01T07:25:43;25.10;54.20
4010;DHT22;2019;48.200;11.548;2022-08-01T07:28:09;25.20;54.20
4010;DHT22;2019;48.200;11.548;2022-08-01T07:30:35;25.20;54.20
4010;DHT22;2019;48.200;11.548;2022-08-01T07:33:01;25.30;54.00
4010;DHT22;2019;48.200;11.548;2022-08-01T07:35:27;25.40;53.80
4010;DHT22;2019;48.200;11.548;2022-08-01T07:37:53;25.50;53.60
4010;DHT22;2019;48.200;11.548;2022-08-01T07:40:19;25.50;53.60
4010;DHT22;2019;48.200;11.548;2022-08-01T07:42:46;25.60;53.60
4010;DHT22;2019;48.200;11.548;2022-08-01T07:45:12;25.60;53.40
4010;DHT22;2019;48.200;11.548;2022-08-01T07:47:38;25.70;53.40
4010;DHT22;2019;48.200;11.548;2022-08-01T07:50:04;25.80;53.50
4010;DHT22;2019;48.200;11.548;2022-08-01T07:52:30;25.80;53.50
4010;DHT22;2019;48.200;11.548;2022-08-01T07:54:57;25.90;53.20
4010;DHT22;2019;48.200;11.548;2022-08-01T07:57:23;26.00;53.60
4010;DHT22;2019;48.200;11.548;2022-08-01T07:59:49;26.00;53.00
4010;DHT22;2019;48.200;11.548;2022-08-01T08:02:15;26.10;53.10
4010;DHT22;2019;48.200;11.548;2022-08-01T08:04:40;26.10;52.80
4010;DHT22;2019;48.200;11.548;2022-08-01T08:07:06;26.20;52.80
4010;DHT22;2019;48.200;11.548;2022-08-01T08:09:32;26.30;53.00
4010;DHT22;2019;48.200;11.548;2022-08-01T08:11:58;26.40;53.00
4010;DHT22;2019;48.200;11.548;2022-08-01T08:14:23;26.50;53.00
4010;DHT22;2019;48.200;11.548;2022-08-01T08:16:50;26.50;52.80
4010;DHT22;2019;48.200;11.548;2022-08-01T08:19:16;26.60;52.80
4010;DHT22;2019;48.200;11.548;2022-08-01T08:21:42;26.70;52.60
4010;DHT22;2019;48.200;11.548;2022-08-01T08:24:08;26.70;52.40
4010;DHT22;2019;48.200;11.548;2022-08-01T08:26:57;26.80;52.40
4010;DHT22;2019;48.200;11.548;2022-08-01T08:29:23;26.90;51.90
4010;DHT22;2019;48.200;11.548;2022-08-01T08:31:49;26.90;51.80
4010;DHT22;2019;48.200;11.548;2022-08-01T08:34:16;27.00;51.80
4010;DHT22;2019;48.200;11.548;2022-08-01T08:36:42;27.10;51.80
4010;DHT22;2019;48.200;11.548;2022-08-01T08:39:07;27.10;52.00
4010;DHT22;2019;48.200;11.548;2022-08-01T08:41:34;27.20;51.70
4010;DHT22;2019;48.200;11.548;2022-08-01T08:44:01;27.20;51.40
4010;DHT22;2019;48.200;11.548;2022-08-01T08:46:28;27.30;51.30
4010;DHT22;2019;48.200;11.548;2022-08-01T08:48:57;27.30;51.10
4010;DHT22;2019;48.200;11.548;2022-08-01T08:51:23;27.50;51.10
4010;DHT22;2019;48.200;11.548;2022-08-01T08:53:51;27.50;51.30
4010;DHT22;2019;48.200;11.548;2022-08-01T08:56:19;27.50;51.00
4010;DHT22;2019;48.200;11.548;2022-08-01T08:58:45;27.60;51.10
4010;DHT22;2019;48.200;11.548;2022-08-01T09:01:12;27.60;51.00
4010;DHT22;2019;48.200;11.548;2022-08-01T09:03:39;27.70;50.70
4010;DHT22;2019;48.200;11.548;2022-08-01T09:06:05;27.70;51.10
4010;DHT22;2019;48.200;11.548;2022-08-01T09:08:32;27.80;50.70
4010;DHT22;2019;48.200;11.548;2022-08-01T09:10:58;27.90;50.40
4010;DHT22;2019;48.200;11.548;2022-08-01T09:13:23;27.90;50.40
4010;DHT22;2019;48.200;11.548;2022-08-01T09:15:53;27.90;50.40
4010;DHT22;2019;48.200;11.548;2022-08-01T09:18:36;28.00;49.90
4010;DHT22;2019;48.200;11.548;2022-08-01T09:21:20;28.10;49.70
4010;DHT22;2019;48.200;11.548;2022-08-01T09:23:52;28.10;49.30
4010;DHT22;2019;48.200;11.548;2022-08-01T09:26:30;28.10;49.30
4010;DHT22;2019;48.200;11.548;2022-08-01T09:28:57;28.20;49.90
4010;DHT22;2019;48.200;11.548;2022-08-01T09:31:26;28.20;48.90
4010;DHT22;2019;48.200;11.548;2022-08-01T09:33:54;28.30;48.60
4010;DHT22;2019;48.200;11.548;2022-08-01T09:36:24;28.20;48.70
4010;DHT22;2019;48.200;11.548;2022-08-01T09:38:51;28.30;48.90
4010;DHT22;2019;48.200;11.548;2022-08-01T09:41:17;28.30;49.10
4010;DHT22;2019;48.200;11.548;2022-08-01T09:43:53;28.40;49.50
4010;DHT22;2019;48.200;11.548;2022-08-01T09:46:18;28.50;48.90
4010;DHT22;2019;48.200;11.548;2022-08-01T09:49:01;28.50;48.70
4010;DHT22;2019;48.200;11.548;2022-08-01T09:51:35;28.50;48.60
4010;DHT22;2019;48.200;11.548;2022-08-01T09:54:03;28.60;48.60
4010;DHT22;2019;48.200;11.548;2022-08-01T09:56:40;28.70;48.40
4010;DHT22;2019;48.200;11.548;2022-08-01T09:59:08;28.80;48.10
4010;DHT22;2019;48.200;11.548;2022-08-01T10:01:45;28.90;47.90
4010;DHT22;2019;48.200;11.548;2022-08-01T10:04:21;29.00;48.30
4010;DHT22;2019;48.200;11.548;2022-08-01T10:06:48;29.10;47.80
4010;DHT22;2019;48.200;11.548;2022-08-01T10:09:27;29.20;48.10
4010;DHT22;2019;48.200;11.548;2022-08-01T10:11:55;29.30;47.70
4010;DHT22;2019;48.200;11.548;2022-08-01T10:14:22;29.40;47.60
4010;DHT22;2019;48.200;11.548;2022-08-01T10:16:52;29.50;47.30
4010;DHT22;2019;48.200;11.548;2022-08-01T10:19:21;29.50;47.20
4010;DHT22;2019;48.200;11.548;2022-08-01T10:21:49;29.70;47.00
4010;DHT22;2019;48.200;11.548;2022-08-01T10:24:18;29.80;47.70
4010;DHT22;2019;48.200;11.548;2022-08-01T10:26:47;29.90;46.80
4010;DHT22;2019;48.200;11.548;2022-08-01T10:29:16;29.90;46.80
4010;DHT22;2019;48.200;11.548;2022-08-01T10:31:44;30.00;46.50
4010;DHT22;2019;48.200;11.548;2022-08-01T10:34:11;30.10;46.20
4010;DHT22;2019;48.200;11.548;2022-08-01T10:36:37;30.10;45.90
4010;DHT22;2019;48.200;11.548;2022-08-01T10:39:09;30.20;45.40
4010;DHT22;2019;48.200;11.548;2022-08-01T10:41:35;30.30;45.00
4010;DHT22;2019;48.200;11.548;2022-08-01T10:44:02;30.30;44.50
4010;DHT22;2019;48.200;11.548;2022-08-01T10:46:30;30.20;44.60
4010;DHT22;2019;48.200;11.548;2022-08-01T10:49:04;30.20;44.60
4010;DHT22;2019;48.200;11.548;2022-08-01T10:51:36;30.20;44.20
4010;DHT22;2019;48.200;11.548;2022-08-01T10:54:05;30.10;44.50
4010;DHT22;2019;48.200;11.548;2022-08-01T10:56:44;30.20;44.80
4010;DHT22;2019;48.200;11.548;2022-08-01T10:59:21;30.20;44.70
4010;DHT22;2019;48.200;11.548;2022-08-01T11:02:01;30.20;44.60
4010;DHT22;2019;48.200;11.548;2022-08-01T11:07:16;30.40;44.50
4010;DHT22;2019;48.200;11.548;2022-08-01T11:09:45;30.40;44.20
4010;DHT22;2019;48.200;11.548;2022-08-01T11:12:14;30.40;44.10
4010;DHT22;2019;48.200;11.548;2022-08-01T11:17:44;30.40;44.10
4010;DHT22;2019;48.200;11.548;2022-08-01T11:20:18;30.50;44.20
4010;DHT22;2019;48.200;11.548;2022-08-01T11:30:47;30.80;43.30
4010;DHT22;2019;48.200;11.548;2022-08-01T11:33:15;30.90;43.40
4010;DHT22;2019;48.200;11.548;2022-08-01T11:41:10;31.30;42.70
4010;DHT22;2019;48.200;11.548;2022-08-01T11:43:55;31.30;42.40
4010;DHT22;2019;48.200;11.548;2022-08-01T11:57:21;31.40;40.20
4010;DHT22;2019;48.200;11.548;2022-08-01T11:59:56;31.30;40.10
4010;DHT22;2019;48.200;11.548;2022-08-01T12:04:59;31.30;40.90
4010;DHT22;2019;48.200;11.548;2022-08-01T12:07:26;31.30;41.40
4010;DHT22;2019;48.200;11.548;2022-08-01T12:10:07;31.40;41.60
4010;DHT22;2019;48.200;11.548;2022-08-01T12:12:34;31.50;41.80
4010;DHT22;2019;48.200;11.548;2022-08-01T12:15:05;31.60;41.00
4010;DHT22;2019;48.200;11.548;2022-08-01T12:17:39;31.70;41.20
4010;DHT22;2019;48.200;11.548;2022-08-01T12:20:10;31.80;40.50
4010;DHT22;2019;48.200;11.548;2022-08-01T12:22:36;31.90;40.30
4010;DHT22;2019;48.200;11.548;2022-08-01T12:25:09;31.90;40.10
4010;DHT22;2019;48.200;11.548;2022-08-01T12:27:36;31.80;39.50
4010;DHT22;2019;48.200;11.548;2022-08-01T12:30:06;31.80;39.70
4010;DHT22;2019;48.200;11.548;2022-08-01T12:32:35;31.70;39.50
4010;DHT22;2019;48.200;11.548;2022-08-01T12:35:12;31.60;39.80
4010;DHT22;2019;48.200;11.548;2022-08-01T12:37:46;31.70;40.00
4010;DHT22;2019;48.200;11.548;2022-08-01T12:40:18;31.70;40.10
4010;DHT22;2019;48.200;11.548;2022-08-01T12:42:46;31.80;40.20
4010;DHT22;2019;48.200;11.548;2022-08-01T12:45:24;31.90;39.80
4010;DHT22;2019;48.200;11.548;2022-08-01T12:47:51;31.80;39.60
4010;DHT22;2019;48.200;11.548;2022-08-01T12:50:20;31.80;39.60
4010;DHT22;2019;48.200;11.548;2022-08-01T12:52:47;31.80;39.40
4010;DHT22;2019;48.200;11.548;2022-08-01T12:55:20;31.70;38.80
4010;DHT22;2019;48.200;11.548;2022-08-01T12:57:50;31.60;38.30
4010;DHT22;2019;48.200;11.548;2022-08-01T13:00:23;31.50;38.40
4010;DHT22;2019;48.200;11.548;2022-08-01T13:02:59;31.30;38.50
4010;DHT22;2019;48.200;11.548;2022-08-01T13:05:25;31.30;38.90
4010;DHT22;2019;48.200;11.548;2022-08-01T13:07:52;31.20;38.90
4010;DHT22;2019;48.200;11.548;2022-08-01T13:10:30;31.10;39.00
4010;DHT22;2019;48.200;11.548;2022-08-01T13:12:58;30.90;39.00
4010;DHT22;2019;48.200;11.548;2022-08-01T13:15:27;30.80;39.20
4010;DHT22;2019;48.200;11.548;2022-08-01T13:17:53;30.70;40.00
4010;DHT22;2019;48.200;11.548;2022-08-01T13:20:31;30.60;39.60
4010;DHT22;2019;48.200;11.548;2022-08-01T13:23:17;30.40;39.80
4010;DHT22;2019;48.200;11.548;2022-08-01T13:25:55;30.40;40.20
4010;DHT22;2019;48.200;11.548;2022-08-01T13:28:26;30.30;40.40
4010;DHT22;2019;48.200;11.548;2022-08-01T13:33:25;30.00;41.20
4010;DHT22;2019;48.200;11.548;2022-08-01T13:35:55;29.90;41.40
4010;DHT22;2019;48.200;11.548;2022-08-01T13:38:22;29.90;40.70
4010;DHT22;2019;48.200;11.548;2022-08-01T13:41:07;29.70;40.10
4010;DHT22;2019;48.200;11.548;2022-08-01T13:43:32;29.60;40.00
4010;DHT22;2019;48.200;11.548;2022-08-01T13:45:59;29.60;40.30
4010;DHT22;2019;48.200;11.548;2022-08-01T13:48:25;29.60;40.20
4010;DHT22;2019;48.200;11.548;2022-08-01T13:50:50;29.50;40.00
4010;DHT22;2019;48.200;11.548;2022-08-01T13:53:16;29.50;40.10
4010;DHT22;2019;48.200;11.548;2022-08-01T13:55:43;29.60;40.40
4010;DHT22;2019;48.200;11.548;2022-08-01T13:58:08;29.50;40.10
4010;DHT22;2019;48.200;11.548;2022-08-01T14:00:34;29.50;40.20
4010;DHT22;2019;48.200;11.548;2022-08-01T14:03:00;29.50;40.30
4010;DHT22;2019;48.200;11.548;2022-08-01T14:05:25;29.50;40.40
4010;DHT22;2019;48.200;11.548;2022-08-01T14:07:51;29.40;40.40
4010;DHT22;2019;48.200;11.548;2022-08-01T14:10:17;29.40;40.70
4010;DHT22;2019;48.200;11.548;2022-08-01T14:12:42;29.40;41.00
4010;DHT22;2019;48.200;11.548;2022-08-01T14:15:08;29.40;41.20
4010;DHT22;2019;48.200;11.548;2022-08-01T14:17:34;29.30;41.90
4010;DHT22;2019;48.200;11.548;2022-08-01T14:20:00;29.30;41.50
4010;DHT22;2019;48.200;11.548;2022-08-01T14:22:26;29.30;41.80
4010;DHT22;2019;48.200;11.548;2022-08-01T14:24:51;29.30;42.10
4010;DHT22;2019;48.200;11.548;2022-08-01T14:27:17;29.30;42.50
4010;DHT22;2019;48.200;11.548;2022-08-01T14:29:43;29.30;42.80
4010;DHT22;2019;48.200;11.548;2022-08-01T14:32:08;29.30;43.20
4010;DHT22;2019;48.200;11.548;2022-08-01T14:34:34;29.40;43.50
4010;DHT22;2019;48.200;11.548;2022-08-01T14:36:59;29.40;43.70
4010;DHT22;2019;48.200;11.548;2022-08-01T14:39:25;29.40;44.00
4010;DHT22;2019;48.200;11.548;2022-08-01T14:41:50;29.30;44.30
4010;DHT22;2019;48.200;11.548;2022-08-01T14:44:16;29.30;44.60
4010;DHT22;2019;48.200;11.548;2022-08-01T14:46:42;29.30;44.80
4010;DHT22;2019;48.200;11.548;2022-08-01T14:49:09;29.30;44.90
4010;DHT22;2019;48.200;11.548;2022-08-01T14:51:35;29.30;45.20
4010;DHT22;2019;48.200;11.548;2022-08-01T14:54:04;29.30;45.40
4010;DHT22;2019;48.200;11.548;2022-08-01T14:56:29;29.30;45.40
4010;DHT22;2019;48.200;11.548;2022-08-01T14:58:55;29.30;45.30
4010;DHT22;2019;48.200;11.548;2022-08-01T15:01:20;29.20;45.30
4010;DHT22;2019;48.200;11.548;2022-08-01T15:03:46;29.20;45.80
4010;DHT22;2019;48.200;11.548;2022-08-01T15:06:13;29.10;45.20
4010;DHT22;2019;48.200;11.548;2022-08-01T15:08:39;29.00;45.20
4010;DHT22;2019;48.200;11.548;2022-08-01T15:11:05;29.00;45.30
4010;DHT22;2019;48.200;11.548;2022-08-01T15:13:31;28.90;45.40
4010;DHT22;2019;48.200;11.548;2022-08-01T15:15:56;28.80;45.50
4010;DHT22;2019;48.200;11.548;2022-08-01T15:18:23;28.70;45.70
4010;DHT22;2019;48.200;11.548;2022-08-01T15:20:49;28.70;46.50
4010;DHT22;2019;48.200;11.548;2022-08-01T15:23:14;28.60;47.30
4010;DHT22;2019;48.200;11.548;2022-08-01T15:25:40;28.50;48.20
4010;DHT22;2019;48.200;11.548;2022-08-01T15:28:05;28.50;49.10
4010;DHT22;2019;48.200;11.548;2022-08-01T15:30:31;28.40;50.00
4010;DHT22;2019;48.200;11.548;2022-08-01T15:32:58;28.30;50.60
4010;DHT22;2019;48.200;11.548;2022-08-01T15:35:23;28.20;51.50
4010;DHT22;2019;48.200;11.548;2022-08-01T15:37:49;28.10;52.00
4010;DHT22;2019;48.200;11.548;2022-08-01T15:40:15;28.00;52.60
4010;DHT22;2019;48.200;11.548;2022-08-01T15:42:40;27.90;53.20
4010;DHT22;2019;48.200;11.548;2022-08-01T15:45:07;27.80;53.30
4010;DHT22;2019;48.200;11.548;2022-08-01T15:47:33;27.70;53.70
4010;DHT22;2019;48.200;11.548;2022-08-01T15:49:58;27.60;53.70
4010;DHT22;2019;48.200;11.548;2022-08-01T15:52:26;27.50;53.90
4010;DHT22;2019;48.200;11.548;2022-08-01T15:54:52;27.40;54.20
4010;DHT22;2019;48.200;11.548;2022-08-01T15:57:17;27.40;54.70
4010;DHT22;2019;48.200;11.548;2022-08-01T15:59:43;27.30;55.20
4010;DHT22;2019;48.200;11.548;2022-08-01T16:02:09;27.30;55.50
4010;DHT22;2019;48.200;11.548;2022-08-01T16:04:35;27.20;55.60
4010;DHT22;2019;48.200;11.548;2022-08-01T16:07:00;27.10;56.00
4010;DHT22;2019;48.200;11.548;2022-08-01T16:09:26;27.10;56.30
4010;DHT22;2019;48.200;11.548;2022-08-01T16:11:51;27.00;56.70
4010;DHT22;2019;48.200;11.548;2022-08-01T16:14:17;26.90;56.80
4010;DHT22;2019;48.200;11.548;2022-08-01T16:16:45;26.90;56.80
4010;DHT22;2019;48.200;11.548;2022-08-01T16:19:11;26.90;57.30
4010;DHT22;2019;48.200;11.548;2022-08-01T16:21:37;26.80;57.70
4010;DHT22;2019;48.200;11.548;2022-08-01T16:24:03;26.80;57.40
4010;DHT22;2019;48.200;11.548;2022-08-01T16:26:28;26.70;57.40
4010;DHT22;2019;48.200;11.548;2022-08-01T16:28:54;26.60;57.60
4010;DHT22;2019;48.200;11.548;2022-08-01T16:31:20;26.50;58.00
4010;DHT22;2019;48.200;11.548;2022-08-01T16:33:46;26.50;58.10
4010;DHT22;2019;48.200;11.548;2022-08-01T16:36:12;26.50;57.90
4010;DHT22;2019;48.200;11.548;2022-08-01T16:38:38;26.40;57.40